Time;durP1;ratioP1;P1;durP2;ratioP2;P2;SDS_P1;SDS_P2;PMS_P1;PMS_P2;Temp;Humidity;BMP_temperature;BMP_pressure;BME280_temperature;BME280_humidity;BME280_pressure;Samples;Min_cycle;Max_cycle;Signal;HPM_P1;HPM_P2
2023/11/06 00:02:04;;;;;;;8.52;1.08;;;9.30;99.90;;;;;;5006858;28;20049;-65
2023/11/06 00:04:30;;;;;;;0.40;0.40;;;9.20;99.90;;;;;;5005787;28;20096;-65
2023/11/06 00:06:56;;;;;;;4.00;0.80;;;9.20;99.90;;;;;;5003743;28;20042;-65
2023/11/06 00:09:22;;;;;;;1.27;0.70;;;9.20;99.90;;;;;;5007911;28;20042;-65
2023/11/06 00:11:48;;;;;;;5.43;1.25;;;9.20;99.90;;;;;;5006955;28;20614;-65
2023/11/06 00:14:13;;;;;;;7.45;1.27;;;9.10;99.90;;;;;;4997797;28;20050;-65
2023/11/06 00:16:39;;;;;;;3.80;0.77;;;9.10;99.90;;;;;;5006025;28;20092;-65
2023/11/06 00:19:05;;;;;;;6.85;1.00;;;9.20;99.90;;;;;;5007198;28;20042;-65
2023/11/06 00:21:31;;;;;;;7.57;1.15;;;9.20;99.90;;;;;;5007440;28;20052;-65
2023/11/06 00:23:57;;;;;;;7.20;1.08;;;9.20;99.90;;;;;;5006943;28;20049;-65
2023/11/06 00:26:22;;;;;;;5.88;0.93;;;9.20;99.90;;;;;;5005626;28;20049;-65
2023/11/06 00:28:48;;;;;;;4.25;0.95;;;9.20;99.90;;;;;;5005473;28;20042;-65
2023/11/06 00:31:16;;;;;;;6.40;1.30;;;9.30;99.90;;;;;;4988750;28;20077;-65
2023/11/06 00:33:42;;;;;;;4.78;1.00;;;9.20;99.90;;;;;;5001146;28;20038;-65
2023/11/06 00:36:25;;;;;;;5.60;1.13;;;9.30;99.90;;;;;;5004312;28;20096;-65
2023/11/06 00:38:51;;;;;;;2.75;0.80;;;9.20;99.90;;;;;;5006357;28;20057;-65
2023/11/06 00:41:17;;;;;;;6.32;0.90;;;9.20;99.90;;;;;;5006817;28;20141;-65
2023/11/06 00:43:43;;;;;;;3.13;1.30;;;9.20;99.90;;;;;;5005658;28;20030;-65
2023/11/06 00:46:09;;;;;;;6.07;0.90;;;9.20;99.90;;;;;;5006490;28;20064;-65
2023/11/06 00:48:35;;;;;;;8.88;1.30;;;9.10;99.90;;;;;;5013580;28;20050;-65
2023/11/06 00:51:01;;;;;;;7.55;1.40;;;9.10;99.90;;;;;;5006467;28;20504;-65
2023/11/06 00:53:27;;;;;;;10.23;1.08;;;9.00;99.90;;;;;;5004682;28;20068;-65
2023/11/06 00:55:56;;;;;;;7.53;1.58;;;9.00;99.90;;;;;;5007019;28;20088;-65
2023/11/06 00:58:22;;;;;;;4.78;1.00;;;9.00;99.90;;;;;;5009421;28;20045;-65
2023/11/06 01:00:50;;;;;;;4.55;1.48;;;8.90;99.90;;;;;;5003590;28;20048;-65
2023/11/06 01:03:15;;;;;;;4.97;1.05;;;8.90;99.90;;;;;;5007425;28;20050;-65
2023/11/06 01:05:42;;;;;;;5.72;1.00;;;8.90;99.90;;;;;;5009474;28;20045;-65
2023/11/06 01:08:07;;;;;;;3.90;1.25;;;8.80;99.90;;;;;;5010183;28;20057;-65
2023/11/06 01:10:34;;;;;;;10.27;1.33;;;8.80;99.90;;;;;;5002939;28;20054;-65
2023/11/06 01:13:01;;;;;;;7.10;1.02;;;8.70;99.90;;;;;;5009261;28;20038;-65
2023/11/06 01:15:31;;;;;;;0.90;0.75;;;8.70;99.90;;;;;;5010637;28;20045;-65
2023/11/06 01:17:57;;;;;;;7.25;1.20;;;8.70;99.90;;;;;;5010035;28;20470;-65
2023/11/06 01:20:24;;;;;;;5.10;1.20;;;8.70;99.90;;;;;;5009218;28;20050;-65
2023/11/06 01:22:50;;;;;;;2.70;1.05;;;8.70;99.90;;;;;;5010742;28;20042;-65
2023/11/06 01:25:16;;;;;;;3.55;0.93;;;8.70;99.90;;;;;;5008284;28;20495;-65
2023/11/06 01:27:41;;;;;;;6.25;0.98;;;8.70;99.90;;;;;;5000178;28;20050;-65
2023/11/06 01:30:09;;;;;;;7.10;1.17;;;8.60;99.90;;;;;;5009438;28;20054;-65
2023/11/06 01:32:35;;;;;;;5.97;1.10;;;8.60;99.90;;;;;;5005979;28;20132;-65
2023/11/06 01:35:01;;;;;;;4.38;0.98;;;8.60;99.90;;;;;;5010118;28;20578;-65
2023/11/06 01:37:27;;;;;;;2.13;0.93;;;8.60;99.90;;;;;;5009095;28;20042;-65
2023/11/06 01:39:52;;;;;;;4.20;1.33;;;8.60;99.90;;;;;;5010112;28;20424;-65
2023/11/06 01:42:18;;;;;;;2.72;0.93;;;8.60;99.90;;;;;;5009893;28;20162;-65
2023/11/06 01:44:44;;;;;;;6.78;1.17;;;8.60;99.90;;;;;;5010119;28;20037;-65
2023/11/06 01:47:10;;;;;;;3.05;0.90;;;8.60;99.90;;;;;;5003565;28;20046;-65
2023/11/06 01:49:40;;;;;;;7.82;1.25;;;8.60;99.90;;;;;;5009810;28;20050;-65
2023/11/06 01:52:07;;;;;;;;;;;8.60;99.90;;;;;;5010604;28;20050;-65
2023/11/06 01:54:33;;;;;;;1.90;0.82;;;8.60;99.90;;;;;;5009834;28;20379;-65
2023/11/06 01:57:02;;;;;;;3.65;0.70;;;8.60;99.90;;;;;;5009543;28;20057;-65
2023/11/06 01:59:28;;;;;;;3.10;0.63;;;8.60;99.90;;;;;;5009747;28;20050;-65
2023/11/06 02:02:04;;;;;;;3.03;0.65;;;8.60;99.90;;;;;;5008700;28;20480;-66
2023/11/06 02:04:31;;;;;;;5.60;0.90;;;8.60;99.90;;;;;;5008352;28;20069;-65
2023/11/06 02:06:57;;;;;;;3.53;0.80;;;8.60;99.90;;;;;;5008802;28;20472;-65
2023/11/06 02:09:24;;;;;;;1.42;0.73;;;8.50;99.90;;;;;;5006008;28;20480;-65
2023/11/06 02:11:50;;;;;;;4.03;0.93;;;8.50;99.90;;;;;;5009736;28;20049;-65
2023/11/06 02:14:16;;;;;;;0.95;0.70;;;8.50;99.90;;;;;;5007590;28;20408;-65
2023/11/06 02:16:41;;;;;;;4.15;0.80;;;8.40;99.90;;;;;;5006418;28;20072;-65
2023/11/06 02:19:07;;;;;;;1.40;0.73;;;8.40;99.90;;;;;;5004429;28;20385;-65
2023/11/06 02:21:35;;;;;;;3.72;0.73;;;8.40;99.90;;;;;;5008298;28;20085;-65
2023/11/06 02:24:02;;;;;;;1.33;0.63;;;8.40;99.90;;;;;;5009396;28;20053;-65
2023/11/06 02:26:29;;;;;;;1.60;0.50;;;8.40;99.90;;;;;;5009565;28;20081;-65
2023/11/06 02:28:55;;;;;;;4.18;1.10;;;8.40;99.90;;;;;;5007933;28;20104;-65
2023/11/06 02:31:21;;;;;;;2.92;1.30;;;8.40;99.90;;;;;;5007131;28;20069;-65
2023/11/06 02:33:47;;;;;;;1.58;0.68;;;8.40;99.90;;;;;;4997701;28;20038;-65
2023/11/06 02:36:12;;;;;;;1.70;1.30;;;8.30;99.90;;;;;;5008774;28;20199;-65
2023/11/06 02:38:38;;;;;;;3.53;0.65;;;8.30;99.90;;;;;;5009064;28;20499;-65
2023/11/06 02:41:05;;;;;;;7.03;0.80;;;8.30;99.90;;;;;;5009209;28;20502;-65
2023/11/06 02:43:31;;;;;;;2.92;0.65;;;8.30;99.90;;;;;;5009157;28;20077;-65
2023/11/06 02:45:56;;;;;;;3.88;0.85;;;8.30;99.90;;;;;;5008614;28;20077;-65
2023/11/06 02:48:22;;;;;;;4.03;0.63;;;8.30;99.90;;;;;;5005006;28;20054;-65
2023/11/06 02:50:49;;;;;;;3.03;0.60;;;8.30;99.90;;;;;;5000827;28;20038;-65
2023/11/06 02:53:15;;;;;;;3.97;0.75;;;8.40;99.90;;;;;;5004715;28;20038;-65
2023/11/06 02:55:41;;;;;;;1.38;0.75;;;8.40;99.90;;;;;;5008692;28;20176;-65
2023/11/06 02:58:07;;;;;;;4.22;1.02;;;8.40;99.90;;;;;;5008884;28;20048;-65
2023/11/06 03:00:33;;;;;;;1.33;0.90;;;8.50;99.90;;;;;;5007551;28;20044;-65
2023/11/06 03:02:59;;;;;;;1.45;0.98;;;8.50;99.90;;;;;;5006444;28;20041;-65
2023/11/06 03:05:25;;;;;;;3.92;1.30;;;8.50;99.90;;;;;;5008239;28;20476;-65
2023/11/06 03:07:50;;;;;;;3.72;1.20;;;8.50;99.90;;;;;;5008695;28;20053;-65
2023/11/06 03:10:16;;;;;;;1.73;1.08;;;8.60;99.90;;;;;;5008271;28;20046;-65
2023/11/06 03:12:42;;;;;;;2.40;1.60;;;8.60;99.90;;;;;;5008677;28;20037;-65
2023/11/06 03:15:10;;;;;;;7.10;1.48;;;8.70;99.90;;;;;;5006913;28;20137;-65
2023/11/06 03:17:36;;;;;;;6.60;1.65;;;8.60;99.90;;;;;;4997432;28;20528;-65
2023/11/06 03:20:06;;;;;;;4.22;1.25;;;8.70;99.90;;;;;;5006880;28;20073;-65
2023/11/06 03:22:31;;;;;;;2.75;1.35;;;8.60;99.90;;;;;;5006628;28;20121;-65
2023/11/06 03:24:57;;;;;;;5.25;1.50;;;8.60;99.90;;;;;;5008337;28;20129;-65
2023/11/06 03:27:23;;;;;;;3.05;1.38;;;8.60;99.90;;;;;;4995799;28;20062;-65
2023/11/06 03:29:48;;;;;;;6.75;1.88;;;8.60;99.90;;;;;;5005817;28;20042;-65
2023/11/06 03:32:14;;;;;;;3.55;1.58;;;8.60;99.90;;;;;;5005583;28;20499;-65
2023/11/06 03:34:43;;;;;;;6.63;1.60;;;8.60;99.90;;;;;;5006483;28;20437;-65
2023/11/06 03:37:08;;;;;;;3.78;1.33;;;8.60;99.90;;;;;;5008293;28;20483;-65
2023/11/06 03:39:34;;;;;;;8.27;1.48;;;8.50;99.90;;;;;;5006420;28;20045;-65
2023/11/06 03:42:00;;;;;;;5.20;1.90;;;8.50;99.90;;;;;;5004025;28;20403;-65
2023/11/06 03:44:26;;;;;;;8.13;1.52;;;8.60;99.90;;;;;;5007679;28;20049;-65
2023/11/06 03:46:51;;;;;;;6.55;1.77;;;8.60;99.90;;;;;;5007158;28;20445;-65
2023/11/06 03:49:17;;;;;;;6.82;1.30;;;8.50;99.90;;;;;;5007798;28;20056;-65
2023/11/06 03:51:43;;;;;;;6.50;1.80;;;8.60;99.90;;;;;;5006514;28;20450;-65
2023/11/06 03:54:09;;;;;;;4.10;1.38;;;8.60;99.90;;;;;;4990110;28;20399;-65
2023/11/06 03:56:35;;;;;;;4.63;1.23;;;8.60;99.90;;;;;;4998655;28;20261;-65
2023/11/06 03:59:00;;;;;;;1.92;1.33;;;8.50;99.90;;;;;;5007747;28;20123;-65
2023/11/06 04:01:26;;;;;;;6.30;1.50;;;8.60;99.90;;;;;;5005818;28;20048;-65
2023/11/06 04:03:52;;;;;;;7.60;1.50;;;8.60;99.90;;;;;;5007458;28;20077;-65
2023/11/06 04:06:19;;;;;;;3.85;1.50;;;8.50;99.90;;;;;;5007225;28;20088;-65
2023/11/06 04:08:44;;;;;;;4.38;0.93;;;8.60;99.90;;;;;;5007671;28;20045;-65
2023/11/06 04:11:10;;;;;;;4.43;1.80;;;8.50;99.90;;;;;;5005109;28;20115;-65
2023/11/06 04:13:37;;;;;;;4.20;1.10;;;8.50;99.90;;;;;;4999370;28;20046;-65
2023/11/06 04:16:03;;;;;;;5.75;1.08;;;8.40;99.90;;;;;;5003599;28;20427;-65
2023/11/06 04:18:29;;;;;;;3.05;1.30;;;8.40;99.90;;;;;;5007025;28;20483;-65
2023/11/06 04:20:54;;;;;;;4.95;1.20;;;8.50;99.90;;;;;;5007497;28;20042;-65
2023/11/06 04:23:20;;;;;;;2.40;1.20;;;8.50;99.90;;;;;;5007188;28;20668;-65
2023/11/06 04:25:48;;;;;;;3.80;1.45;;;8.50;99.90;;;;;;5005991;28;20399;-65
2023/11/06 04:28:14;;;;;;;5.43;1.15;;;8.50;99.90;;;;;;4992239;28;20392;-65
2023/11/06 04:30:41;;;;;;;8.18;1.33;;;8.60;99.90;;;;;;5003854;28;20698;-64
2023/11/06 04:33:06;;;;;;;10.63;1.17;;;8.50;99.90;;;;;;4989193;28;20820;-65
2023/11/06 04:35:32;;;;;;;5.40;1.40;;;8.60;99.90;;;;;;5005366;28;20057;-65
2023/11/06 04:37:58;;;;;;;2.63;0.95;;;8.60;99.90;;;;;;5007301;28;20476;-65
2023/11/06 04:40:25;;;;;;;3.58;1.15;;;8.60;99.90;;;;;;5005737;28;20045;-65
2023/11/06 04:42:51;;;;;;;3.53;1.15;;;8.60;99.90;;;;;;5005965;28;20053;-65
2023/11/06 04:45:16;;;;;;;3.50;1.73;;;8.60;99.90;;;;;;5005764;28;20506;-65
2023/11/06 04:47:42;;;;;;;4.53;1.67;;;8.60;99.90;;;;;;5004877;28;20448;-65
2023/11/06 04:50:08;;;;;;;5.93;1.92;;;8.70;99.90;;;;;;5005658;28;20108;-65
2023/11/06 04:52:34;;;;;;;2.30;1.60;;;8.70;99.90;;;;;;5005486;28;20061;-65
2023/11/06 04:55:00;;;;;;;5.18;1.85;;;8.70;99.90;;;;;;4973082;28;20050;-65
2023/11/06 04:57:25;;;;;;;11.35;2.45;;;8.80;99.90;;;;;;5006608;28;20050;-65
2023/11/06 04:59:51;;;;;;;6.30;2.33;;;9.00;99.90;;;;;;5000839;28;20493;-65
2023/11/06 05:02:17;;;;;;;7.82;1.92;;;9.00;99.90;;;;;;5006791;28;20042;-66
2023/11/06 05:04:43;;;;;;;8.85;2.20;;;9.00;99.90;;;;;;5006760;28;20046;-66
2023/11/06 05:07:09;;;;;;;6.25;2.00;;;9.10;99.90;;;;;;5005252;28;20061;-65
2023/11/06 05:09:36;;;;;;;12.15;2.65;;;9.10;99.90;;;;;;5006395;28;20046;-66
2023/11/06 05:12:02;;;;;;;6.78;2.28;;;9.20;99.90;;;;;;5007014;28;20144;-66
2023/11/06 05:14:28;;;;;;;7.95;2.13;;;9.20;99.90;;;;;;5005189;28;20137;-65
2023/11/06 05:16:54;;;;;;;9.57;2.38;;;9.10;99.90;;;;;;5006744;28;20044;-66
2023/11/06 05:19:19;;;;;;;9.48;2.38;;;9.20;99.90;;;;;;5010660;28;20050;-65
2023/11/06 05:21:46;;;;;;;8.30;2.20;;;9.20;99.90;;;;;;5006325;28;20384;-65
2023/11/06 05:24:15;;;;;;;7.97;2.05;;;9.20;99.90;;;;;;5007022;28;20380;-65
2023/11/06 05:26:41;;;;;;;8.43;2.13;;;9.20;99.90;;;;;;5006444;28;20053;-66
2023/11/06 05:29:07;;;;;;;5.00;1.70;;;9.20;99.90;;;;;;5006571;28;20450;-66
2023/11/06 05:31:32;;;;;;;7.00;1.80;;;9.20;99.90;;;;;;5004794;28;20095;-65
2023/11/06 05:33:58;;;;;;;12.15;2.15;;;9.20;99.90;;;;;;5006590;28;20042;-66
2023/11/06 05:36:29;;;;;;;8.13;2.20;;;9.20;99.90;;;;;;5006801;28;20193;-65
2023/11/06 05:38:58;;;;;;;2.10;1.60;;;9.20;99.90;;;;;;5006750;28;20381;-66
2023/11/06 05:41:25;;;;;;;3.72;1.65;;;9.20;99.90;;;;;;5009264;28;20381;-65
2023/11/06 05:43:51;;;;;;;3.10;1.70;;;9.10;99.90;;;;;;5009781;28;20049;-66
2023/11/06 05:46:17;;;;;;;2.13;1.65;;;9.10;99.90;;;;;;5004804;28;20050;-65
2023/11/06 05:48:42;;;;;;;5.60;2.05;;;9.00;99.90;;;;;;5008238;28;20061;-65
2023/11/06 05:51:08;;;;;;;1.80;1.70;;;9.00;99.90;;;;;;5010351;28;20054;-65
2023/11/06 05:53:34;;;;;;;6.75;1.88;;;9.10;99.90;;;;;;5009549;28;20037;-65
2023/11/06 05:56:00;;;;;;;2.03;1.88;;;9.00;99.90;;;;;;5010218;28;20046;-65
2023/11/06 05:58:25;;;;;;;3.35;1.60;;;9.10;99.90;;;;;;5010158;28;20057;-66
2023/11/06 06:00:51;;;;;;;9.05;2.30;;;9.10;99.90;;;;;;4998584;28;20050;-66
2023/11/06 06:03:18;;;;;;;8.10;2.20;;;9.20;99.90;;;;;;5008031;28;20046;-66
2023/11/06 06:05:43;;;;;;;4.13;2.17;;;9.10;99.90;;;;;;5008234;28;20049;-66
2023/11/06 06:08:11;;;;;;;6.40;2.20;;;9.20;99.90;;;;;;5008494;28;20042;-67
2023/11/06 06:10:37;;;;;;;7.35;2.60;;;9.20;99.90;;;;;;5008203;28;20449;-67
2023/11/06 06:13:02;;;;;;;12.80;2.95;;;9.20;99.90;;;;;;5009601;28;20038;-66
2023/11/06 06:15:28;;;;;;;4.45;2.67;;;9.20;99.90;;;;;;5004196;28;20046;-66
2023/11/06 06:17:54;;;;;;;7.82;3.05;;;9.20;99.90;;;;;;5006895;28;20081;-65
2023/11/06 06:20:19;;;;;;;4.00;2.05;;;9.20;99.90;;;;;;5009935;28;20373;-66
2023/11/06 06:22:46;;;;;;;6.90;2.90;;;9.20;99.90;;;;;;5009104;28;20042;-66
2023/11/06 06:25:12;;;;;;;6.68;2.30;;;9.10;99.90;;;;;;5006822;28;20077;-66
2023/11/06 06:27:38;;;;;;;6.82;3.10;;;9.10;99.90;;;;;;5007419;28;20180;-65
2023/11/06 06:30:08;;;;;;;15.30;3.60;;;9.20;99.90;;;;;;5009214;28;20133;-65
2023/11/06 06:32:34;;;;;;;10.63;3.15;;;9.20;99.90;;;;;;5009677;28;20046;-65
2023/11/06 06:35:00;;;;;;;11.20;3.67;;;9.20;99.90;;;;;;5007631;28;20049;-65
2023/11/06 06:37:25;;;;;;;11.82;3.83;;;9.20;99.90;;;;;;5003019;28;20539;-65
2023/11/06 06:39:51;;;;;;;9.98;4.25;;;9.20;99.90;;;;;;5007555;28;20096;-65
2023/11/06 06:42:17;;;;;;;12.23;3.65;;;9.20;99.90;;;;;;5009286;28;20531;-65
2023/11/06 06:44:43;;;;;;;7.07;3.63;;;9.20;99.90;;;;;;5007141;28;20076;-65
2023/11/06 06:47:09;;;;;;;8.77;4.28;;;9.20;99.90;;;;;;5004791;28;21453;-65
2023/11/06 06:49:41;;;;;;;15.05;4.60;;;9.20;99.90;;;;;;5007839;28;20045;-65
2023/11/06 06:52:10;;;;;;;6.32;3.30;;;9.10;99.90;;;;;;5008039;28;20374;-65
2023/11/06 06:54:36;;;;;;;10.48;4.00;;;9.20;99.90;;;;;;5007770;28;20108;-65
2023/11/06 06:57:03;;;;;;;11.10;3.97;;;9.30;99.90;;;;;;5007604;28;20526;-66
2023/11/06 06:59:29;;;;;;;9.88;3.75;;;9.10;99.90;;;;;;5007745;28;20046;-65
2023/11/06 07:01:56;;;;;;;14.23;4.72;;;9.30;99.90;;;;;;5008493;28;20407;-65
2023/11/06 07:04:23;;;;;;;9.93;2.30;;;9.20;99.90;;;;;;5007839;28;20484;-65
2023/11/06 07:06:49;;;;;;;16.02;3.90;;;9.20;99.90;;;;;;5008143;28;20054;-66
2023/11/06 07:09:15;;;;;;;5.53;3.28;;;9.30;99.90;;;;;;5003478;28;20145;-65
2023/11/06 07:11:40;;;;;;;7.05;3.28;;;9.30;99.90;;;;;;4998771;28;20103;-65
2023/11/06 07:14:06;;;;;;;12.63;3.83;;;9.30;99.90;;;;;;5007762;28;20100;-65
2023/11/06 07:16:32;;;;;;;15.98;4.28;;;9.30;99.90;;;;;;5008822;28;20132;-65
2023/11/06 07:18:57;;;;;;;8.90;3.10;;;9.30;99.90;;;;;;5007453;28;20048;-65
2023/11/06 07:21:24;;;;;;;7.40;2.88;;;9.30;99.90;;;;;;5006506;28;20038;-66
2023/11/06 07:23:50;;;;;;;7.70;2.92;;;9.30;99.90;;;;;;4999769;28;20060;-65
2023/11/06 07:26:15;;;;;;;4.43;2.67;;;9.30;99.90;;;;;;5006741;28;20334;-66
2023/11/06 07:28:41;;;;;;;8.20;2.92;;;9.30;99.90;;;;;;5008296;28;20137;-65
2023/11/06 07:31:07;;;;;;;3.90;1.75;;;9.30;99.90;;;;;;5006547;28;20096;-65
2023/11/06 07:33:33;;;;;;;4.93;2.22;;;9.40;99.90;;;;;;5006532;28;20516;-65
2023/11/06 07:35:59;;;;;;;10.02;2.30;;;9.30;99.90;;;;;;5006384;28;20070;-65
2023/11/06 07:38:24;;;;;;;9.18;2.72;;;9.30;99.90;;;;;;5007999;28;20038;-65
2023/11/06 07:40:51;;;;;;;8.02;1.95;;;9.40;99.90;;;;;;4998663;28;20050;-65
2023/11/06 07:43:17;;;;;;;9.20;1.95;;;9.40;99.90;;;;;;5005687;28;20551;-65
2023/11/06 07:45:43;;;;;;;11.25;2.20;;;9.40;99.90;;;;;;5006632;28;20133;-65
2023/11/06 07:48:09;;;;;;;6.10;1.80;;;9.30;99.90;;;;;;5007074;28;20504;-65
2023/11/06 07:50:34;;;;;;;6.15;1.75;;;9.40;99.90;;;;;;5006480;28;20046;-65
2023/11/06 07:53:01;;;;;;;2.90;1.40;;;9.40;99.90;;;;;;5001941;28;20125;-65
2023/11/06 07:55:26;;;;;;;4.50;1.63;;;9.40;99.90;;;;;;4992285;28;20050;-65
2023/11/06 07:57:52;;;;;;;4.85;1.67;;;9.40;99.90;;;;;;5005225;28;20475;-65
2023/11/06 08:00:19;;;;;;;3.75;1.60;;;9.40;99.90;;;;;;5007115;28;20042;-65
2023/11/06 08:02:44;;;;;;;6.10;1.58;;;9.40;99.90;;;;;;5007126;28;20034;-65
2023/11/06 08:05:10;;;;;;;4.70;1.60;;;9.40;99.90;;;;;;5006595;28;20100;-65
2023/11/06 08:07:40;;;;;;;5.20;1.50;;;9.30;99.90;;;;;;5005448;28;20129;-65
2023/11/06 08:10:10;;;;;;;3.55;1.38;;;9.40;99.90;;;;;;5004778;28;20038;-65
2023/11/06 08:12:35;;;;;;;;;;;9.40;99.90;;;;;;5004668;28;20448;-65
2023/11/06 08:15:03;;;;;;;2.30;0.90;;;9.40;99.90;;;;;;5004619;28;19928;-65
2023/11/06 08:17:29;;;;;;;0.90;0.90;;;9.40;99.90;;;;;;5007326;28;20049;-65
2023/11/06 08:19:55;;;;;;;1.92;0.65;;;9.40;99.90;;;;;;5006823;28;20381;-65
2023/11/06 08:22:21;;;;;;;2.67;0.80;;;9.40;99.90;;;;;;5005909;28;20516;-65
2023/11/06 08:24:48;;;;;;;4.82;1.60;;;9.40;99.90;;;;;;5007100;28;20038;-65
2023/11/06 08:27:14;;;;;;;2.10;0.50;;;9.50;99.90;;;;;;5006794;28;20509;-65
2023/11/06 08:29:42;;;;;;;1.15;0.38;;;9.50;99.90;;;;;;5007030;28;20042;-65
2023/11/06 08:32:11;;;;;;;1.63;0.70;;;9.50;99.90;;;;;;5004613;28;20416;-65
2023/11/06 08:34:43;;;;;;;2.75;0.50;;;9.50;99.90;;;;;;5006891;28;20045;-65
2023/11/06 08:37:11;;;;;;;0.52;0.32;;;9.50;99.90;;;;;;5006981;28;20050;-65
2023/11/06 08:39:45;;;;;;;0.82;0.17;;;9.60;99.90;;;;;;5007341;28;20045;-65
2023/11/06 08:42:14;;;;;;;5.20;1.00;;;9.60;99.90;;;;;;5003010;28;20053;-65
2023/11/06 08:44:42;;;;;;;4.35;0.68;;;9.60;99.90;;;;;;4993232;28;20455;-65
2023/11/06 08:47:09;;;;;;;1.70;0.70;;;9.70;99.90;;;;;;5002285;28;20431;-65
2023/11/06 08:49:35;;;;;;;1.77;0.60;;;9.70;99.90;;;;;;4998449;28;20455;-65
2023/11/06 08:52:02;;;;;;;3.40;0.80;;;9.80;99.90;;;;;;5001882;28;20117;-65
2023/11/06 08:54:27;;;;;;;6.10;0.60;;;9.80;99.90;;;;;;5007263;28;20064;-65
2023/11/06 08:56:58;;;;;;;10.52;0.73;;;9.80;99.90;;;;;;5006826;28;20866;-65
2023/11/06 08:59:23;;;;;;;0.93;0.60;;;9.80;99.90;;;;;;4989236;28;20056;-65
2023/11/06 09:01:51;;;;;;;1.58;0.43;;;9.70;99.90;;;;;;5006992;28;20038;-65
2023/11/06 09:04:17;;;;;;;0.82;0.32;;;9.70;99.90;;;;;;4988807;28;20127;-65
2023/11/06 09:06:44;;;;;;;0.20;0.20;;;9.70;99.90;;;;;;5006621;28;20061;-66
2023/11/06 09:09:13;;;;;;;1.33;0.40;;;9.60;99.90;;;;;;5006162;28;20046;-66
2023/11/06 09:11:43;;;;;;;3.95;0.40;;;9.50;99.90;;;;;;4998775;28;20136;-66
2023/11/06 09:14:10;;;;;;;0.65;0.50;;;9.40;99.90;;;;;;5003797;28;20097;-66
2023/11/06 09:16:37;;;;;;;4.07;0.63;;;9.40;99.90;;;;;;4997445;28;20579;-66
2023/11/06 09:19:05;;;;;;;2.28;0.75;;;9.40;99.90;;;;;;5008844;28;20177;-66
2023/11/06 09:21:31;;;;;;;5.03;0.60;;;9.30;99.90;;;;;;4996685;28;20103;-66
2023/11/06 09:23:57;;;;;;;1.42;0.60;;;9.30;99.90;;;;;;5007627;28;20050;-66
2023/11/06 09:26:23;;;;;;;1.35;0.60;;;9.30;99.90;;;;;;5000616;28;20530;-67
2023/11/06 09:28:48;;;;;;;1.95;0.70;;;9.30;99.90;;;;;;5004220;28;20041;-66
2023/11/06 09:31:20;;;;;;;2.53;0.68;;;9.30;99.90;;;;;;5007838;28;20049;-67
2023/11/06 09:33:47;;;;;;;8.88;1.05;;;9.40;99.90;;;;;;5010571;28;20057;-67
2023/11/06 09:36:12;;;;;;;2.50;1.00;;;9.40;99.90;;;;;;5001598;28;20055;-66
2023/11/06 09:38:38;;;;;;;5.22;1.35;;;9.30;99.90;;;;;;5010269;28;20054;-66
2023/11/06 09:41:04;;;;;;;6.95;1.10;;;9.40;99.90;;;;;;5007999;28;20049;-66
2023/11/06 09:43:30;;;;;;;3.58;1.40;;;9.40;99.90;;;;;;4994203;28;20041;-66
2023/11/06 09:45:57;;;;;;;7.20;1.90;;;9.50;99.90;;;;;;5004930;28;20056;-66
2023/11/06 09:48:30;;;;;;;4.88;1.55;;;9.50;99.90;;;;;;5005786;28;20054;-67
2023/11/06 09:50:56;;;;;;;5.28;1.38;;;9.50;99.90;;;;;;5003307;28;20054;-67
2023/11/06 09:53:23;;;;;;;1.60;1.30;;;9.50;99.90;;;;;;5007883;28;20046;-67
2023/11/06 09:55:51;;;;;;;2.60;1.15;;;9.50;99.90;;;;;;5004927;28;20050;-67
2023/11/06 09:58:16;;;;;;;9.05;1.58;;;9.50;99.90;;;;;;5002995;28;20056;-66
2023/11/06 10:00:50;;;;;;;1.58;1.23;;;9.50;99.90;;;;;;5009494;28;20798;-66
2023/11/06 10:03:17;;;;;;;2.95;1.17;;;9.50;99.90;;;;;;5005349;28;20053;-66
2023/11/06 10:05:43;;;;;;;5.40;1.83;;;9.50;99.90;;;;;;5009512;28;20045;-66
2023/11/06 10:08:09;;;;;;;2.30;1.35;;;9.50;99.90;;;;;;5009010;28;20046;-66
2023/11/06 10:10:35;;;;;;;4.68;1.35;;;9.50;99.90;;;;;;5009282;28;20112;-67
2023/11/06 10:13:03;;;;;;;4.80;1.00;;;9.50;99.90;;;;;;5010258;28;20092;-68
2023/11/06 10:15:34;;;;;;;3.72;1.42;;;9.50;99.90;;;;;;5008779;28;20107;-67
2023/11/06 10:18:13;;;;;;;1.83;1.13;;;9.50;99.90;;;;;;5008804;28;20048;-66
2023/11/06 10:20:46;;;;;;;7.72;1.15;;;9.50;99.90;;;;;;5005266;28;20500;-66
2023/11/06 10:23:24;;;;;;;8.43;2.03;;;9.60;99.90;;;;;;5001476;28;20073;-66
2023/11/06 10:25:53;;;;;;;5.25;1.38;;;9.50;99.90;;;;;;5009724;28;20042;-66
2023/11/06 10:28:20;;;;;;;10.30;1.60;;;9.50;99.90;;;;;;5003598;28;20041;-66
2023/11/06 10:30:53;;;;;;;8.80;1.55;;;9.50;99.90;;;;;;5007828;28;20050;-66
2023/11/06 10:33:21;;;;;;;6.55;1.27;;;9.60;99.90;;;;;;5008569;28;20045;-66
2023/11/06 10:35:47;;;;;;;6.60;1.48;;;9.50;99.90;;;;;;5007531;28;20534;-66
2023/11/06 10:38:29;;;;;;;5.05;1.52;;;9.60;99.90;;;;;;5006482;28;20045;-65
2023/11/06 10:40:56;;;;;;;4.75;1.25;;;9.60;99.90;;;;;;5004298;28;20076;-66
2023/11/06 10:43:23;;;;;;;10.70;1.38;;;9.60;99.90;;;;;;5005888;28;20573;-65
2023/11/06 10:45:49;;;;;;;4.28;1.33;;;9.60;99.90;;;;;;5006420;28;20080;-65
2023/11/06 10:48:32;;;;;;;8.43;2.13;;;9.70;99.90;;;;;;5003628;28;20057;-65
2023/11/06 10:50:59;;;;;;;11.07;1.38;;;9.70;99.90;;;;;;5003903;28;20145;-66
2023/11/06 10:53:26;;;;;;;4.82;1.02;;;9.80;99.90;;;;;;5007701;28;20045;-65
2023/11/06 10:55:52;;;;;;;4.47;1.08;;;9.80;99.90;;;;;;5005529;28;20096;-66
2023/11/06 10:58:21;;;;;;;5.28;1.10;;;9.70;99.90;;;;;;5007319;28;20046;-65
2023/11/06 11:00:48;;;;;;;4.25;1.08;;;9.80;99.90;;;;;;5009045;28;20037;-65
2023/11/06 11:03:17;;;;;;;6.22;1.20;;;9.80;99.90;;;;;;5003762;28;20045;-66
2023/11/06 11:05:43;;;;;;;7.32;0.95;;;9.90;99.90;;;;;;5007105;28;20396;-65
2023/11/06 11:08:09;;;;;;;5.25;1.08;;;9.80;99.90;;;;;;5007321;28;20076;-65
2023/11/06 11:10:35;;;;;;;7.55;1.58;;;9.90;99.90;;;;;;5007891;28;20041;-66
2023/11/06 11:13:03;;;;;;;9.55;1.52;;;9.90;99.90;;;;;;5006649;28;20053;-65
2023/11/06 11:15:31;;;;;;;2.63;0.88;;;10.00;99.90;;;;;;5007185;28;20045;-66
2023/11/06 11:18:04;;;;;;;6.53;1.30;;;10.10;99.90;;;;;;5008125;28;20517;-65
2023/11/06 11:20:56;;;;;;;3.90;1.30;;;10.10;99.90;;;;;;5008254;28;20121;-65
2023/11/06 11:23:38;;;;;;;9.52;1.13;;;10.10;99.90;;;;;;4996087;28;20048;-65
2023/11/06 11:26:09;;;;;;;1.77;0.80;;;10.10;99.90;;;;;;5006691;28;20492;-65
2023/11/06 11:28:58;;;;;;;4.97;0.80;;;10.10;99.90;;;;;;5007801;28;20468;-66
2023/11/06 11:31:39;;;;;;;3.97;0.98;;;10.20;99.90;;;;;;5004955;28;20121;-66
2023/11/06 11:34:07;;;;;;;1.92;0.88;;;10.20;99.90;;;;;;5003762;28;20116;-65
2023/11/06 11:36:33;;;;;;;2.25;1.00;;;10.20;99.90;;;;;;5022495;28;20128;-66
2023/11/06 11:39:01;;;;;;;6.65;1.05;;;10.20;99.90;;;;;;5007567;28;20050;-65
2023/11/06 11:41:27;;;;;;;4.50;0.88;;;10.30;99.90;;;;;;5000787;28;20528;-65
2023/11/06 11:44:04;;;;;;;3.97;0.90;;;10.40;99.90;;;;;;5000114;28;20048;-65
2023/11/06 11:46:39;;;;;;;2.88;0.82;;;10.50;99.90;;;;;;5021821;28;20049;-66
2023/11/06 11:49:05;;;;;;;3.05;0.93;;;10.40;99.90;;;;;;5002455;28;20069;-65
2023/11/06 11:51:51;;;;;;;6.72;1.02;;;10.50;99.90;;;;;;4999697;28;20050;-66
2023/11/06 11:54:27;;;;;;;5.53;1.05;;;10.60;99.90;;;;;;4995765;28;20046;-66
2023/11/06 11:56:53;;;;;;;9.23;0.98;;;10.60;99.90;;;;;;5004839;28;20046;-66
2023/11/06 11:59:19;;;;;;;2.33;0.73;;;10.60;99.90;;;;;;4989865;28;20046;-66
2023/11/06 12:01:45;;;;;;;1.90;0.65;;;10.60;99.90;;;;;;5006879;28;20049;-65
2023/11/06 12:04:24;;;;;;;5.82;0.90;;;10.70;99.90;;;;;;5005770;28;20124;-65
2023/11/06 12:07:03;;;;;;;1.87;0.80;;;10.70;99.90;;;;;;5005700;28;20453;-65
2023/11/06 12:09:48;;;;;;;6.28;1.05;;;10.70;99.90;;;;;;5005811;28;20277;-65
2023/11/06 12:12:28;;;;;;;7.60;1.35;;;10.70;99.90;;;;;;5005700;28;20107;-65
2023/11/06 12:14:59;;;;;;;6.18;0.82;;;10.70;99.90;;;;;;5007393;28;20570;-66
2023/11/06 12:17:26;;;;;;;5.68;0.65;;;10.70;99.90;;;;;;5005321;28;20046;-65
2023/11/06 12:19:54;;;;;;;5.03;1.42;;;10.70;99.90;;;;;;5005755;28;20542;-65
2023/11/06 12:22:20;;;;;;;9.60;1.60;;;10.70;99.90;;;;;;5005986;28;20497;-65
2023/11/06 12:24:55;;;;;;;8.10;1.25;;;10.70;99.90;;;;;;5005465;28;20042;-65
2023/11/06 12:27:34;;;;;;;6.05;1.40;;;10.70;99.90;;;;;;4994068;28;20100;-65
2023/11/06 12:30:04;;;;;;;8.00;1.15;;;10.70;99.90;;;;;;5005394;28;20053;-66
2023/11/06 12:32:31;;;;;;;2.33;0.95;;;10.70;99.90;;;;;;5006541;28;20095;-66
2023/11/06 12:35:14;;;;;;;4.50;1.00;;;10.60;99.90;;;;;;4999367;28;20984;-65
2023/11/06 12:37:47;;;;;;;4.80;1.17;;;10.70;99.90;;;;;;5004442;28;20397;-66
2023/11/06 12:40:17;;;;;;;2.83;1.05;;;10.60;99.90;;;;;;5004401;28;20056;-66
2023/11/06 12:42:45;;;;;;;6.65;1.13;;;10.50;99.90;;;;;;5005708;28;20137;-66
2023/11/06 12:45:40;;;;;;;2.70;1.10;;;10.50;99.90;;;;;;5005298;28;20058;-66
2023/11/06 12:48:28;;;;;;;4.90;1.40;;;10.50;99.90;;;;;;4998575;28;20046;-66
2023/11/06 12:51:04;;;;;;;8.48;1.10;;;10.40;99.90;;;;;;5002647;28;20065;-66
2023/11/06 12:53:31;;;;;;;7.38;1.02;;;10.30;99.90;;;;;;4993632;28;20049;-66
2023/11/06 12:55:57;;;;;;;3.10;0.95;;;10.30;99.90;;;;;;4999715;28;20113;-67
2023/11/06 12:58:23;;;;;;;3.20;0.80;;;10.30;99.90;;;;;;5000935;28;20128;-67